createdAt,value
2018-04-29T00:01:37.680Z,4.30
2018-04-29T00:04:05.951Z,5.00
2018-04-29T00:06:34.961Z,5.60
2018-04-29T00:09:03.797Z,7.00
2018-04-29T00:11:32.047Z,7.90
2018-04-29T00:14:01.051Z,5.43
2018-04-29T00:16:29.313Z,6.53
2018-04-29T00:18:57.552Z,5.87
2018-04-29T00:21:25.839Z,4.60
2018-04-29T00:23:54.132Z,7.07
2018-04-29T00:26:22.387Z,4.57
2018-04-29T00:28:50.644Z,5.20
2018-04-29T00:31:19.727Z,5.20
2018-04-29T00:33:47.989Z,3.97
2018-04-29T00:36:17.772Z,5.10
2018-04-29T00:38:46.402Z,5.30
2018-04-29T00:41:14.614Z,5.03
2018-04-29T00:43:42.844Z,5.70
2018-04-29T00:46:11.852Z,7.73
2018-04-29T00:48:40.876Z,5.20
2018-04-29T00:51:09.132Z,6.23
2018-04-29T00:53:38.131Z,6.60
2018-04-29T00:56:07.152Z,5.67
2018-04-29T00:58:35.388Z,8.07
2018-04-29T01:01:04.239Z,6.80
2018-04-29T01:03:32.481Z,6.93
2018-04-29T01:06:01.572Z,4.73
2018-04-29T01:08:29.794Z,5.13
2018-04-29T01:10:58.170Z,5.03
2018-04-29T01:13:26.422Z,5.97
2018-04-29T01:15:55.445Z,4.93
2018-04-29T01:18:23.726Z,4.30
2018-04-29T01:20:52.561Z,5.07
2018-04-29T01:23:21.608Z,5.47
2018-04-29T01:25:50.628Z,4.30
2018-04-29T01:28:18.948Z,5.57
2018-04-29T01:30:47.188Z,6.43
2018-04-29T01:33:15.928Z,5.83
2018-04-29T01:35:44.204Z,4.73
2018-04-29T01:38:12.528Z,4.57
2018-04-29T01:40:40.763Z,4.70
2018-04-29T01:43:09.044Z,4.97
2018-04-29T01:45:38.276Z,3.97
2018-04-29T01:48:07.916Z,5.33
2018-04-29T01:50:36.136Z,5.93
2018-04-29T01:53:04.391Z,5.67
2018-04-29T01:55:32.623Z,6.23
2018-04-29T01:58:01.648Z,6.10
2018-04-29T02:00:29.882Z,6.00
2018-04-29T02:02:58.142Z,6.07
2018-04-29T02:05:26.380Z,6.80
2018-04-29T02:07:55.856Z,6.30
2018-04-29T02:10:24.093Z,5.03
2018-04-29T02:12:52.431Z,5.33
2018-04-29T02:15:21.524Z,5.77
2018-04-29T02:17:49.791Z,6.47
2018-04-29T02:20:18.018Z,6.17
2018-04-29T02:22:47.073Z,5.87
2018-04-29T02:25:15.297Z,6.83
2018-04-29T02:27:44.355Z,6.40
2018-04-29T02:30:12.609Z,5.73
2018-04-29T02:32:40.863Z,5.80
2018-04-29T02:35:09.100Z,5.90
2018-04-29T02:37:37.371Z,6.73
2018-04-29T02:40:05.599Z,5.20
2018-04-29T02:42:34.616Z,7.53
2018-04-29T02:45:02.889Z,6.50
2018-04-29T02:47:31.148Z,6.60
2018-04-29T02:50:00.155Z,6.97
2018-04-29T02:52:29.217Z,6.97
2018-04-29T02:54:57.456Z,6.13
2018-04-29T02:57:26.316Z,8.20
2018-04-29T02:59:54.558Z,6.87
2018-04-29T03:02:22.884Z,8.03
2018-04-29T03:04:51.884Z,6.17
2018-04-29T03:07:20.956Z,5.10
2018-04-29T03:09:49.914Z,5.37
2018-04-29T03:12:18.664Z,5.43
2018-04-29T03:14:46.913Z,5.10
2018-04-29T03:17:15.284Z,7.13
2018-04-29T03:19:43.512Z,8.17
2018-04-29T03:22:11.744Z,6.33
2018-04-29T03:24:40.872Z,7.67
2018-04-29T03:27:09.112Z,7.33
2018-04-29T03:29:37.356Z,7.90
2018-04-29T03:32:06.365Z,6.70
2018-04-29T03:34:35.381Z,6.30
2018-04-29T03:37:03.611Z,6.27
2018-04-29T03:39:31.873Z,8.77
2018-04-29T03:42:00.105Z,7.03
2018-04-29T03:44:29.864Z,6.70
2018-04-29T03:46:58.089Z,5.90
2018-04-29T03:49:27.704Z,9.33
2018-04-29T03:51:56.732Z,5.77
2018-04-29T03:54:25.006Z,6.90
2018-04-29T03:56:53.212Z,5.20
2018-04-29T03:59:33.427Z,7.00
2018-04-29T04:02:14.124Z,8.50
2018-04-29T04:04:42.384Z,7.83
2018-04-29T04:07:10.652Z,8.20
2018-04-29T04:09:39.739Z,7.07
2018-04-29T04:12:07.906Z,5.57
2018-04-29T04:14:36.164Z,8.23
2018-04-29T04:17:04.977Z,5.40
2018-04-29T04:19:33.226Z,5.83
2018-04-29T04:22:01.459Z,6.83
2018-04-29T04:24:29.705Z,5.70
2018-04-29T04:26:57.932Z,6.07
2018-04-29T04:29:26.944Z,8.90
2018-04-29T04:31:55.176Z,9.53
2018-04-29T04:34:23.433Z,13.00
2018-04-29T04:36:51.658Z,11.77
2018-04-29T04:39:19.907Z,9.83
2018-04-29T04:41:48.159Z,6.10
2018-04-29T04:44:16.479Z,6.73
2018-04-29T04:46:44.700Z,8.77
2018-04-29T04:49:13.754Z,7.27
2018-04-29T04:51:42.036Z,8.17
2018-04-29T04:54:10.449Z,7.87
2018-04-29T04:56:38.700Z,8.37
2018-04-29T04:59:07.036Z,6.87
2018-04-29T05:01:35.296Z,6.70
2018-04-29T05:04:04.324Z,5.93
2018-04-29T05:06:32.564Z,7.40
2018-04-29T05:09:00.831Z,7.30
2018-04-29T05:11:29.064Z,6.80
2018-04-29T05:13:57.364Z,8.03
2018-04-29T05:16:26.222Z,6.17
2018-04-29T05:18:55.244Z,8.47
2018-04-29T05:21:23.489Z,8.93
2018-04-29T05:23:52.279Z,8.43
2018-04-29T05:26:20.560Z,9.83
2018-04-29T05:28:48.896Z,8.30
2018-04-29T05:31:17.174Z,10.23
2018-04-29T05:33:45.415Z,10.63
2018-04-29T05:36:14.463Z,8.53
2018-04-29T05:38:42.697Z,8.10
2018-04-29T05:41:11.741Z,8.07
2018-04-29T05:43:39.968Z,9.53
2018-04-29T05:46:08.208Z,6.70
2018-04-29T05:48:36.437Z,9.10
2018-04-29T05:51:05.445Z,7.53
2018-04-29T05:53:33.687Z,8.37
2018-04-29T05:56:01.928Z,7.60
2018-04-29T05:58:30.157Z,7.20
2018-04-29T06:00:59.432Z,8.20
2018-04-29T06:03:27.696Z,7.93
2018-04-29T06:05:55.938Z,7.57
2018-04-29T06:08:24.965Z,11.87
2018-04-29T06:10:53.235Z,6.10
2018-04-29T06:13:22.232Z,8.97
2018-04-29T06:15:51.345Z,7.70
2018-04-29T06:18:19.584Z,7.60
2018-04-29T06:20:47.849Z,5.40
2018-04-29T06:23:16.099Z,8.77
2018-04-29T06:25:44.372Z,8.33
2018-04-29T06:28:13.194Z,6.30
2018-04-29T06:30:41.468Z,6.30
2018-04-29T06:33:09.708Z,6.03
2018-04-29T06:35:38.832Z,6.50
2018-04-29T06:38:07.080Z,7.07
2018-04-29T06:40:36.109Z,7.47
2018-04-29T06:43:04.346Z,7.70
2018-04-29T06:45:33.242Z,7.57
2018-04-29T06:48:01.501Z,6.93
2018-04-29T06:50:31.274Z,6.60
2018-04-29T06:52:59.530Z,7.80
2018-04-29T06:55:28.579Z,7.03
2018-04-29T06:57:57.543Z,8.80
2018-04-29T07:00:26.546Z,4.87
2018-04-29T07:02:55.626Z,6.17
2018-04-29T07:05:24.623Z,6.10
2018-04-29T07:07:54.149Z,6.57
2018-04-29T07:10:23.610Z,8.13
2018-04-29T07:12:51.876Z,6.90
2018-04-29T07:15:20.205Z,8.63
2018-04-29T07:17:48.468Z,5.63
2018-04-29T07:20:16.709Z,8.30
2018-04-29T07:22:45.053Z,6.00
2018-04-29T07:25:14.537Z,6.13
2018-04-29T07:27:42.791Z,5.60
2018-04-29T07:30:11.051Z,5.47
2018-04-29T07:32:39.318Z,7.40
2018-04-29T07:35:08.607Z,5.40
2018-04-29T07:37:36.864Z,6.70
2018-04-29T07:40:05.115Z,5.97
2018-04-29T07:42:34.126Z,6.53
2018-04-29T07:45:02.396Z,8.00
2018-04-29T07:47:30.647Z,8.13
2018-04-29T07:49:59.687Z,7.30
2018-04-29T07:52:27.980Z,7.60
2018-04-29T07:54:56.253Z,8.83
2018-04-29T07:57:24.516Z,5.80
2018-04-29T07:59:52.761Z,6.33
2018-04-29T08:02:21.131Z,9.03
2018-04-29T08:04:49.372Z,8.97
2018-04-29T08:07:17.620Z,8.03
2018-04-29T08:09:46.652Z,6.67
2018-04-29T08:12:15.299Z,8.37
2018-04-29T08:14:44.308Z,8.70
2018-04-29T08:17:13.378Z,8.30
2018-04-29T08:19:41.604Z,9.70
2018-04-29T08:22:09.860Z,7.60
2018-04-29T08:24:38.862Z,8.43
2018-04-29T08:27:07.879Z,8.27
2018-04-29T08:29:36.149Z,7.27
2018-04-29T08:32:05.177Z,11.10
2018-04-29T08:34:33.459Z,7.17
2018-04-29T08:37:01.726Z,8.47
2018-04-29T08:39:29.975Z,9.63
2018-04-29T08:41:59.071Z,9.37
2018-04-29T08:44:27.297Z,10.93
2018-04-29T08:46:55.565Z,7.53
2018-04-29T08:49:23.970Z,8.07
2018-04-29T08:51:53.681Z,8.30
2018-04-29T08:54:22.682Z,8.77
2018-04-29T08:56:50.999Z,10.37
2018-04-29T08:59:19.223Z,8.57
2018-04-29T09:01:47.489Z,8.60
2018-04-29T09:04:16.500Z,7.87
2018-04-29T09:06:44.771Z,10.33
2018-04-29T09:09:13.820Z,9.23
2018-04-29T09:11:42.056Z,7.83
2018-04-29T09:14:10.344Z,8.37
2018-04-29T09:16:38.584Z,7.13
2018-04-29T09:19:06.863Z,7.83
2018-04-29T09:21:35.199Z,8.83
2018-04-29T09:24:03.444Z,8.17
2018-04-29T09:26:32.438Z,8.77
2018-04-29T09:29:01.451Z,8.43
2018-04-29T09:31:30.468Z,8.67
2018-04-29T09:33:58.712Z,9.27
2018-04-29T09:36:26.961Z,8.10
2018-04-29T09:38:55.221Z,8.37
2018-04-29T09:41:23.788Z,8.53
2018-04-29T09:43:52.824Z,9.93
2018-04-29T09:46:21.085Z,7.37
2018-04-29T09:48:49.538Z,6.63
2018-04-29T09:51:17.767Z,10.37
2018-04-29T09:53:46.033Z,8.93
2018-04-29T09:56:14.880Z,7.43
2018-04-29T09:58:43.149Z,6.80
2018-04-29T10:01:18.204Z,8.20
2018-04-29T10:03:48.047Z,12.37
2018-04-29T10:06:16.287Z,8.57
2018-04-29T10:08:44.550Z,9.80
2018-04-29T10:11:12.795Z,10.67
2018-04-29T10:13:41.826Z,10.13
2018-04-29T10:16:10.072Z,9.03
2018-04-29T10:18:38.371Z,7.00
2018-04-29T10:21:06.634Z,8.33
2018-04-29T10:23:35.184Z,8.83
2018-04-29T10:26:04.016Z,7.87
2018-04-29T10:28:32.283Z,5.80
2018-04-29T10:31:01.577Z,8.00
2018-04-29T10:33:29.848Z,7.30
2018-04-29T10:35:58.186Z,6.10
2018-04-29T10:38:26.436Z,6.10
2018-04-29T10:40:55.448Z,6.87
2018-04-29T10:43:23.736Z,5.47
2018-04-29T10:45:51.975Z,5.80
2018-04-29T10:48:20.226Z,5.87
2018-04-29T10:50:48.565Z,5.17
2018-04-29T10:53:16.812Z,8.13
2018-04-29T10:55:45.053Z,8.77
2018-04-29T10:58:13.312Z,6.75
2018-04-29T11:00:42.318Z,5.57
2018-04-29T11:03:10.552Z,5.80
2018-04-29T11:05:38.937Z,6.43
2018-04-29T11:08:07.188Z,8.23
2018-04-29T11:10:35.484Z,6.35
2018-04-29T11:13:04.253Z,5.37
2018-04-29T11:15:32.525Z,5.12
2018-04-29T11:18:00.825Z,5.72
2018-04-29T11:20:29.068Z,2.87
2018-04-29T11:22:58.082Z,6.32
2018-04-29T11:25:26.438Z,5.60
2018-04-29T11:27:54.708Z,5.50
2018-04-29T11:30:22.999Z,3.28
2018-04-29T11:32:51.476Z,9.30
2018-04-29T11:35:19.737Z,4.15
2018-04-29T11:37:48.700Z,4.37
2018-04-29T11:40:17.071Z,5.90
2018-04-29T11:42:45.312Z,3.83
2018-04-29T11:45:13.596Z,4.22
2018-04-29T11:47:41.888Z,5.40
2018-04-29T11:50:10.105Z,3.70
2018-04-29T11:52:38.981Z,3.93
2018-04-29T11:55:08.630Z,4.93
2018-04-29T11:57:36.877Z,3.67
2018-04-29T12:00:05.726Z,4.40
2018-04-29T12:02:34.026Z,3.83
2018-04-29T12:05:02.968Z,4.80
2018-04-29T12:07:31.984Z,5.00
2018-04-29T12:10:00.248Z,5.37
2018-04-29T12:12:28.487Z,4.00
2018-04-29T12:14:56.756Z,4.23
2018-04-29T12:17:25.040Z,4.93
2018-04-29T12:19:53.288Z,5.10
2018-04-29T12:22:21.573Z,6.67
2018-04-29T12:24:50.343Z,6.33
2018-04-29T12:27:18.583Z,11.60
2018-04-29T12:29:47.582Z,5.80
2018-04-29T12:32:15.836Z,8.27
2018-04-29T12:34:44.101Z,5.83
2018-04-29T12:37:12.356Z,5.90
2018-04-29T12:39:40.628Z,6.13
2018-04-29T12:42:08.884Z,7.23
2018-04-29T12:44:37.126Z,8.07
2018-04-29T12:47:05.999Z,8.43
2018-04-29T12:49:34.243Z,6.17
2018-04-29T12:52:02.586Z,6.30
2018-04-29T12:54:30.823Z,7.80
2018-04-29T12:56:59.857Z,7.63
2018-04-29T12:59:28.202Z,7.23
2018-04-29T13:01:57.216Z,8.03
2018-04-29T13:04:25.473Z,4.67
2018-04-29T13:06:54.492Z,4.60
2018-04-29T13:09:22.744Z,5.20
2018-04-29T13:11:51.033Z,5.30
2018-04-29T13:14:20.032Z,5.43
2018-04-29T13:16:49.059Z,7.33
2018-04-29T13:19:17.300Z,5.83
2018-04-29T13:21:45.552Z,8.00
2018-04-29T13:24:13.779Z,6.43
2018-04-29T13:26:42.808Z,7.37
2018-04-29T13:29:11.057Z,6.10
2018-04-29T13:31:40.068Z,4.47
2018-04-29T13:34:08.335Z,6.23
2018-04-29T13:36:36.612Z,6.03
2018-04-29T13:39:04.866Z,5.70
2018-04-29T13:41:33.127Z,7.90
2018-04-29T13:44:01.385Z,6.70
2018-04-29T13:46:29.650Z,3.67
2018-04-29T13:48:58.648Z,5.23
2018-04-29T13:51:27.752Z,5.97
2018-04-29T13:53:56.780Z,5.53
2018-04-29T13:56:25.063Z,6.10
2018-04-29T13:58:53.343Z,4.07
2018-04-29T14:01:21.581Z,5.57
2018-04-29T14:03:50.601Z,4.65
2018-04-29T14:06:19.612Z,4.57
2018-04-29T14:08:48.340Z,3.75
2018-04-29T14:11:16.593Z,6.03
2018-04-29T14:13:45.463Z,2.72
2018-04-29T14:16:13.820Z,3.67
2018-04-29T14:18:42.845Z,3.95
2018-04-29T14:21:11.098Z,4.53
2018-04-29T14:23:39.355Z,3.65
2018-04-29T14:26:07.609Z,2.53
2018-04-29T14:28:35.846Z,2.85
2018-04-29T14:31:04.848Z,5.75
2018-04-29T14:33:33.876Z,3.87
2018-04-29T14:36:02.122Z,3.05
2018-04-29T14:38:30.382Z,3.90
2018-04-29T14:40:59.221Z,6.53
2018-04-29T14:43:27.469Z,3.87
2018-04-29T14:45:55.696Z,4.00
2018-04-29T14:48:23.991Z,4.62
2018-04-29T14:50:52.235Z,4.75
2018-04-29T14:53:21.248Z,3.07
2018-04-29T14:55:49.509Z,5.13
2018-04-29T14:58:17.747Z,3.77
2018-04-29T15:00:46.045Z,3.83
2018-04-29T15:03:14.323Z,4.50
2018-04-29T15:05:42.642Z,4.10
2018-04-29T15:08:11.655Z,3.13
2018-04-29T15:10:39.904Z,3.63
2018-04-29T15:13:08.220Z,4.73
2018-04-29T15:15:36.456Z,7.07
2018-04-29T15:18:04.733Z,5.30
2018-04-29T15:20:32.967Z,4.70
2018-04-29T15:23:01.312Z,5.97
2018-04-29T15:25:29.570Z,6.93
2018-04-29T15:27:57.835Z,4.73
2018-04-29T15:30:26.114Z,8.27
2018-04-29T15:32:54.384Z,5.20
2018-04-29T15:35:22.628Z,7.33
2018-04-29T15:37:52.402Z,7.17
2018-04-29T15:40:20.665Z,5.13
2018-04-29T15:42:49.773Z,6.07
2018-04-29T15:45:18.744Z,7.83
2018-04-29T15:47:47.743Z,8.20
2018-04-29T15:50:16.019Z,5.30
2018-04-29T15:52:45.852Z,8.73
2018-04-29T15:55:14.111Z,8.80
2018-04-29T15:57:43.136Z,7.57
2018-04-29T16:00:11.368Z,6.90
2018-04-29T16:02:39.633Z,5.87
2018-04-29T16:05:07.872Z,7.20
2018-04-29T16:07:36.126Z,6.90
2018-04-29T16:10:05.204Z,7.70
2018-04-29T16:12:33.508Z,10.13
2018-04-29T16:15:02.529Z,6.60
2018-04-29T16:17:30.756Z,7.37
2018-04-29T16:19:59.027Z,7.33
2018-04-29T16:22:27.264Z,6.07
2018-04-29T16:24:55.521Z,6.70
2018-04-29T16:27:23.796Z,8.63
2018-04-29T16:29:52.940Z,6.83
2018-04-29T16:32:21.189Z,9.63
2018-04-29T16:34:49.460Z,8.23
2018-04-29T16:37:17.700Z,8.00
2018-04-29T16:39:46.008Z,8.73
2018-04-29T16:42:14.276Z,8.00
2018-04-29T16:44:42.544Z,10.17
2018-04-29T16:47:10.791Z,8.80
2018-04-29T16:49:39.065Z,8.53
2018-04-29T16:52:08.082Z,6.83
2018-04-29T16:54:36.313Z,7.23
2018-04-29T16:57:04.555Z,6.50
2018-04-29T16:59:33.289Z,7.77
2018-04-29T17:02:01.549Z,5.13
2018-04-29T17:04:29.805Z,6.50
2018-04-29T17:06:58.041Z,7.47
2018-04-29T17:09:26.366Z,6.63
2018-04-29T17:11:54.894Z,6.77
2018-04-29T17:14:23.637Z,4.40
2018-04-29T17:16:52.688Z,7.10
2018-04-29T17:19:20.956Z,6.90
2018-04-29T17:21:49.204Z,5.90
2018-04-29T17:24:17.468Z,10.50
2018-04-29T17:26:45.718Z,6.13
2018-04-29T17:29:14.017Z,6.00
2018-04-29T17:31:42.718Z,6.40
2018-04-29T17:34:11.781Z,5.37
2018-04-29T17:36:40.015Z,5.30
2018-04-29T17:39:08.366Z,5.40
2018-04-29T17:41:36.658Z,3.80
2018-04-29T17:44:04.908Z,9.27
2018-04-29T17:46:33.160Z,5.17
2018-04-29T17:49:01.438Z,5.90
2018-04-29T17:51:29.735Z,10.30
2018-04-29T17:53:58.004Z,6.73
2018-04-29T17:56:26.281Z,9.47
2018-04-29T17:58:54.513Z,4.87
2018-04-29T18:01:22.866Z,5.10
2018-04-29T18:03:51.089Z,6.97
2018-04-29T18:06:20.159Z,5.80
2018-04-29T18:08:48.369Z,5.47
2018-04-29T18:11:17.382Z,7.27
2018-04-29T18:13:45.634Z,7.60
2018-04-29T18:16:14.090Z,7.70
2018-04-29T18:18:43.973Z,5.33
2018-04-29T18:21:12.257Z,7.13
2018-04-29T18:23:40.492Z,4.93
2018-04-29T18:26:08.715Z,6.60
2018-04-29T18:28:37.181Z,6.53
2018-04-29T18:31:05.445Z,7.77
2018-04-29T18:33:33.683Z,6.67
2018-04-29T18:36:01.908Z,9.00
2018-04-29T18:38:30.637Z,6.73
2018-04-29T18:41:00.257Z,6.97
2018-04-29T18:43:28.492Z,5.67
2018-04-29T18:45:56.770Z,7.03
2018-04-29T18:48:25.018Z,5.03
2018-04-29T18:50:53.469Z,6.40
2018-04-29T18:53:21.553Z,7.50
2018-04-29T18:55:49.895Z,4.17
2018-04-29T18:58:19.836Z,8.47
2018-04-29T19:00:48.182Z,6.10
2018-04-29T19:03:16.519Z,5.90
2018-04-29T19:05:47.356Z,5.20
2018-04-29T19:08:17.229Z,6.30
2018-04-29T19:10:45.501Z,7.30
2018-04-29T19:13:13.842Z,6.57
2018-04-29T19:15:42.117Z,8.10
2018-04-29T19:18:11.147Z,6.43
2018-04-29T19:20:39.439Z,6.03
2018-04-29T19:23:08.208Z,7.20
2018-04-29T19:25:36.467Z,6.83
2018-04-29T19:28:05.459Z,7.17
2018-04-29T19:30:34.501Z,6.50
2018-04-29T19:33:02.732Z,6.93
2018-04-29T19:35:32.036Z,5.47
2018-04-29T19:38:00.268Z,7.27
2018-04-29T19:40:28.516Z,6.77
2018-04-29T19:42:57.534Z,4.97
2018-04-29T19:45:26.384Z,7.40
2018-04-29T19:47:54.655Z,6.53
2018-04-29T19:50:22.913Z,6.20
2018-04-29T19:52:51.159Z,6.73
2018-04-29T19:55:19.426Z,5.67
2018-04-29T19:57:48.457Z,4.93
2018-04-29T20:00:16.680Z,6.67
2018-04-29T20:02:44.950Z,5.40
2018-04-29T20:05:13.176Z,8.37
2018-04-29T20:07:41.436Z,5.10
2018-04-29T20:10:09.679Z,5.83
2018-04-29T20:12:37.941Z,7.90
2018-04-29T20:15:06.184Z,8.20
2018-04-29T20:17:35.221Z,6.27
2018-04-29T20:20:03.506Z,6.23
2018-04-29T20:22:31.780Z,7.67
2018-04-29T20:25:00.740Z,7.43
2018-04-29T20:27:29.583Z,7.20
2018-04-29T20:29:57.875Z,6.70
2018-04-29T20:32:38.792Z,6.97
2018-04-29T20:35:07.039Z,6.13
2018-04-29T20:37:36.037Z,8.03
2018-04-29T20:40:04.284Z,6.03
2018-04-29T20:42:32.574Z,8.37
2018-04-29T20:45:00.865Z,7.73
2018-04-29T20:47:29.208Z,5.97
2018-04-29T20:49:58.240Z,7.73
2018-04-29T20:52:26.493Z,7.80
2018-04-29T20:54:54.814Z,8.23
2018-04-29T20:57:23.104Z,5.37
2018-04-29T20:59:51.359Z,7.17
2018-04-29T21:02:19.621Z,7.27
2018-04-29T21:04:48.738Z,7.07
2018-04-29T21:07:16.983Z,7.67
2018-04-29T21:09:45.997Z,8.80
2018-04-29T21:12:14.265Z,6.03
2018-04-29T21:14:42.503Z,8.10
2018-04-29T21:17:10.785Z,5.83
2018-04-29T21:19:39.002Z,8.00
2018-04-29T21:22:07.246Z,8.93
2018-04-29T21:24:35.494Z,9.17
2018-04-29T21:27:03.737Z,6.20
2018-04-29T21:29:31.986Z,9.03
2018-04-29T21:32:00.221Z,6.23
2018-04-29T21:34:28.475Z,6.80
2018-04-29T21:36:56.711Z,9.63
2018-04-29T21:39:24.992Z,6.60
2018-04-29T21:41:53.522Z,5.13
2018-04-29T21:44:21.782Z,6.73
2018-04-29T21:46:50.566Z,6.87
2018-04-29T21:49:18.809Z,6.50
2018-04-29T21:51:47.128Z,7.07
2018-04-29T21:54:16.798Z,7.53
2018-04-29T21:56:45.870Z,7.00
2018-04-29T21:59:14.124Z,7.73
2018-04-29T22:01:42.842Z,6.47
2018-04-29T22:04:11.147Z,7.57
2018-04-29T22:06:39.471Z,7.03
2018-04-29T22:09:08.504Z,6.87
2018-04-29T22:11:36.744Z,6.83
2018-04-29T22:14:05.000Z,7.27
2018-04-29T22:16:34.000Z,6.53
2018-04-29T22:19:02.265Z,6.87
2018-04-29T22:21:31.262Z,8.77
2018-04-29T22:24:00.314Z,9.70
2018-04-29T22:26:28.547Z,6.93
2018-04-29T22:28:57.548Z,8.40
2018-04-29T22:31:25.855Z,7.17
2018-04-29T22:33:54.145Z,7.73
2018-04-29T22:36:23.276Z,5.73
2018-04-29T22:38:51.548Z,6.27
2018-04-29T22:41:19.780Z,8.50
2018-04-29T22:43:48.810Z,7.77
2018-04-29T22:46:17.073Z,8.87
2018-04-29T22:48:45.311Z,7.17
2018-04-29T22:51:13.560Z,6.07
2018-04-29T22:53:41.884Z,9.60
2018-04-29T22:56:10.123Z,6.77
2018-04-29T22:58:38.448Z,5.97
2018-04-29T23:01:06.712Z,8.80
2018-04-29T23:03:34.988Z,7.23
2018-04-29T23:06:03.238Z,9.57
2018-04-29T23:08:31.472Z,8.90
2018-04-29T23:10:59.728Z,9.23
2018-04-29T23:13:28.573Z,9.97
2018-04-29T23:15:56.832Z,10.53
2018-04-29T23:18:26.840Z,13.47
2018-04-29T23:20:55.668Z,9.60
2018-04-29T23:23:23.924Z,10.77
2018-04-29T23:25:52.947Z,9.07
2018-04-29T23:28:21.184Z,8.70
2018-04-29T23:30:49.436Z,8.07
2018-04-29T23:33:17.721Z,8.70
2018-04-29T23:35:45.943Z,8.43
2018-04-29T23:38:14.210Z,8.83
2018-04-29T23:40:42.455Z,8.63
2018-04-29T23:43:10.692Z,10.40
2018-04-29T23:45:39.725Z,10.20
2018-04-29T23:48:07.982Z,15.60
2018-04-29T23:50:37.465Z,12.13
2018-04-29T23:53:05.716Z,17.20
2018-04-29T23:55:33.972Z,17.80
2018-04-29T23:58:02.223Z,21.47
